createdAt,value
2022-11-04T00:00:12.600Z,138.00
2022-11-04T00:02:45.685Z,142.10
2022-11-04T00:05:18.278Z,131.02
2022-11-04T00:08:05.872Z,127.05
2022-11-04T00:10:54.054Z,126.13
2022-11-04T00:13:30.453Z,117.57
2022-11-04T00:16:18.812Z,174.88
2022-11-04T00:18:51.514Z,121.82
2022-11-04T00:21:39.240Z,135.93
2022-11-04T00:24:29.196Z,115.45
2022-11-04T00:27:17.060Z,126.65
2022-11-04T00:29:49.715Z,122.75
2022-11-04T00:32:37.770Z,118.22
2022-11-04T00:35:11.866Z,154.80
2022-11-04T00:37:45.121Z,147.57
2022-11-04T00:40:17.803Z,159.43
2022-11-04T00:42:50.349Z,163.73
2022-11-04T00:45:23.052Z,134.48
2022-11-04T00:47:55.571Z,145.93
2022-11-04T00:50:28.183Z,136.70
2022-11-04T00:53:01.822Z,129.20
2022-11-04T00:55:34.638Z,130.70
2022-11-04T00:58:07.218Z,128.20
2022-11-04T01:00:40.982Z,139.13
2022-11-04T01:03:13.563Z,126.93
2022-11-04T01:05:46.717Z,121.32
2022-11-04T01:08:19.301Z,112.00
2022-11-04T01:10:51.966Z,108.63
2022-11-04T01:13:24.574Z,111.32
2022-11-04T01:15:59.810Z,108.15
2022-11-04T01:18:32.503Z,116.15
2022-11-04T01:21:08.301Z,104.65
2022-11-04T01:23:42.397Z,119.85
2022-11-04T01:26:18.243Z,119.13
2022-11-04T01:28:55.079Z,113.93
2022-11-04T01:31:29.914Z,127.50
2022-11-04T01:34:02.613Z,130.13
2022-11-04T01:36:35.191Z,122.68
2022-11-04T01:39:07.626Z,140.30
2022-11-04T01:41:40.687Z,109.45
2022-11-04T01:44:43.169Z,130.00
2022-11-04T01:47:20.415Z,105.53
2022-11-04T01:49:58.546Z,123.05
2022-11-04T01:52:41.826Z,101.72
2022-11-04T01:55:22.651Z,113.13
2022-11-04T01:58:00.148Z,109.00
2022-11-04T02:00:33.708Z,109.80
2022-11-04T02:03:15.260Z,108.93
2022-11-04T02:05:48.614Z,107.43
2022-11-04T02:08:22.357Z,113.13
2022-11-04T02:11:00.130Z,123.85
2022-11-04T02:13:35.873Z,125.55
2022-11-04T02:16:28.186Z,115.57
2022-11-04T02:19:17.978Z,117.40
2022-11-04T02:22:06.708Z,108.30
2022-11-04T02:24:58.020Z,111.90
2022-11-04T02:27:39.330Z,114.07
2022-11-04T02:30:15.666Z,104.30
2022-11-04T02:33:12.201Z,100.68
2022-11-04T02:35:53.526Z,98.57
2022-11-04T02:38:31.444Z,102.90
2022-11-04T02:41:35.209Z,93.88
2022-11-04T02:44:19.676Z,102.97
2022-11-04T02:47:03.184Z,112.43
2022-11-04T02:49:45.267Z,102.07
2022-11-04T02:52:38.237Z,102.47
2022-11-04T02:55:31.275Z,97.55
2022-11-04T02:58:09.936Z,95.60
2022-11-04T03:00:45.407Z,97.32
2022-11-04T03:03:23.653Z,91.97
2022-11-04T03:05:57.196Z,77.68
2022-11-04T03:08:38.910Z,68.88
2022-11-04T03:11:16.435Z,73.03
2022-11-04T03:14:06.657Z,64.25
2022-11-04T03:16:45.052Z,61.60
2022-11-04T03:19:24.144Z,60.97
2022-11-04T03:22:04.526Z,59.88
2022-11-04T03:24:37.391Z,57.65
2022-11-04T03:27:33.309Z,64.75
2022-11-04T03:30:12.648Z,55.30
2022-11-04T03:33:04.877Z,53.13
2022-11-04T03:35:37.482Z,48.97
2022-11-04T03:38:10.422Z,49.83
2022-11-04T03:40:43.241Z,52.10
2022-11-04T03:43:20.591Z,44.17
2022-11-04T03:45:54.398Z,38.83
2022-11-04T03:48:27.025Z,40.40
2022-11-04T03:51:00.184Z,41.25
2022-11-04T03:53:33.567Z,40.15
2022-11-04T03:56:21.385Z,31.35
2022-11-04T03:59:19.256Z,35.20
2022-11-04T04:02:10.928Z,36.08
2022-11-04T04:04:59.709Z,33.95
2022-11-04T04:07:50.043Z,29.10
2022-11-04T04:10:42.411Z,29.35
2022-11-04T04:13:19.130Z,28.35
2022-11-04T04:15:59.319Z,28.95
2022-11-04T04:18:40.999Z,31.48
2022-11-04T04:21:17.515Z,31.30
2022-11-04T04:24:08.377Z,30.77
2022-11-04T04:26:58.652Z,32.60
2022-11-04T04:29:32.235Z,35.80
2022-11-04T04:32:05.706Z,37.20
2022-11-04T04:34:38.491Z,36.88
2022-11-04T04:37:20.756Z,32.95
2022-11-04T04:40:13.264Z,37.83
2022-11-04T04:43:01.744Z,33.78
2022-11-04T04:45:38.632Z,36.03
2022-11-04T04:48:14.101Z,38.03
2022-11-04T04:50:50.326Z,38.05
2022-11-04T04:53:23.448Z,37.67
2022-11-04T04:55:57.002Z,34.20
2022-11-04T04:58:29.627Z,30.15
2022-11-04T05:01:03.666Z,38.63
2022-11-04T05:03:39.778Z,40.47
2022-11-04T05:06:14.902Z,35.05
2022-11-04T05:08:47.409Z,41.45
2022-11-04T05:11:24.354Z,37.10
2022-11-04T05:13:59.619Z,37.03
2022-11-04T05:16:34.369Z,43.63
2022-11-04T05:19:10.827Z,43.83
2022-11-04T05:21:43.542Z,42.60
2022-11-04T05:24:16.192Z,41.00
2022-11-04T05:26:49.009Z,37.17
2022-11-04T05:29:21.710Z,41.15
2022-11-04T05:31:54.256Z,35.70
2022-11-04T05:34:26.788Z,40.05
2022-11-04T05:37:00.313Z,35.45
2022-11-04T05:39:33.179Z,12.23
2022-11-04T05:42:07.100Z,8.10
2022-11-04T05:44:40.006Z,6.55
2022-11-04T05:47:12.831Z,4.68
2022-11-04T05:49:45.413Z,2.67
2022-11-04T05:52:18.389Z,2.15
2022-11-04T05:54:51.105Z,2.33
2022-11-04T05:57:23.887Z,1.75
2022-11-04T05:59:56.648Z,1.70
2022-11-04T06:02:29.408Z,1.52
2022-11-04T06:05:02.439Z,2.00
2022-11-04T06:07:35.143Z,3.03
2022-11-04T06:10:08.265Z,2.53
2022-11-04T06:12:40.920Z,4.43
2022-11-04T06:15:13.449Z,6.00
2022-11-04T06:17:49.185Z,3.45
2022-11-04T06:20:21.904Z,3.03
2022-11-04T06:22:54.632Z,5.35
2022-11-04T06:25:27.360Z,2.50
2022-11-04T06:27:59.867Z,3.05
2022-11-04T06:30:32.882Z,4.88
2022-11-04T06:33:05.759Z,2.95
2022-11-04T06:35:39.971Z,4.40
2022-11-04T06:38:12.833Z,7.43
2022-11-04T06:40:45.436Z,7.00
2022-11-04T06:43:18.450Z,5.10
2022-11-04T06:45:55.756Z,1.48
2022-11-04T06:48:31.159Z,3.10
2022-11-04T06:53:36.350Z,3.45
2022-11-04T06:56:10.505Z,4.05
2022-11-04T06:58:43.332Z,3.95
2022-11-04T07:01:21.717Z,3.30
2022-11-04T07:03:57.560Z,2.92
2022-11-04T07:06:30.282Z,2.40
2022-11-04T07:09:03.929Z,2.38
2022-11-04T07:11:36.564Z,1.92
2022-11-04T07:14:10.344Z,3.05
2022-11-04T07:16:42.965Z,1.83
2022-11-04T07:19:15.590Z,2.80
2022-11-04T07:21:48.389Z,1.08
2022-11-04T07:24:21.202Z,2.45
2022-11-04T07:26:56.681Z,2.50
2022-11-04T07:29:29.522Z,3.95
2022-11-04T07:32:02.655Z,2.22
2022-11-04T07:34:35.196Z,2.40
2022-11-04T07:37:07.806Z,2.05
2022-11-04T07:39:40.530Z,2.08
2022-11-04T07:42:13.173Z,1.92
2022-11-04T07:44:46.223Z,2.30
2022-11-04T07:47:18.900Z,1.95
2022-11-04T07:49:51.717Z,4.32
2022-11-04T07:52:25.694Z,2.50
2022-11-04T07:54:58.383Z,3.47
2022-11-04T07:57:30.979Z,2.83
2022-11-04T08:00:07.357Z,2.28
2022-11-04T08:02:47.052Z,1.92
2022-11-04T08:05:19.980Z,1.98
2022-11-04T08:07:52.624Z,1.13
2022-11-04T08:10:26.378Z,0.55
2022-11-04T08:12:59.120Z,1.20
2022-11-04T08:15:31.854Z,1.90
2022-11-04T08:18:05.021Z,1.25
2022-11-04T08:20:38.815Z,1.67
2022-11-04T08:23:12.479Z,1.13
2022-11-04T08:25:46.455Z,3.17
2022-11-04T08:28:19.135Z,0.55
2022-11-04T08:30:58.877Z,3.90
2022-11-04T08:33:33.514Z,2.95
2022-11-04T08:36:12.856Z,3.97
2022-11-04T08:38:46.115Z,4.47
2022-11-04T08:41:21.316Z,3.00
2022-11-04T08:43:53.934Z,2.72
2022-11-04T08:46:28.598Z,2.40
2022-11-04T08:49:05.710Z,2.10
2022-11-04T08:51:44.380Z,1.90
2022-11-04T08:54:17.519Z,2.22
2022-11-04T08:56:50.304Z,0.90
2022-11-04T08:59:23.177Z,3.70
2022-11-04T09:01:56.055Z,1.45
2022-11-04T09:04:28.835Z,1.90
2022-11-04T09:07:08.057Z,2.00
2022-11-04T09:09:41.910Z,1.33
2022-11-04T09:12:14.550Z,1.80
2022-11-04T09:14:47.313Z,0.63
2022-11-04T09:17:19.956Z,1.48
2022-11-04T09:19:52.541Z,0.63
2022-11-04T09:22:25.181Z,0.65
2022-11-04T09:24:58.718Z,0.43
2022-11-04T09:27:31.402Z,1.30
2022-11-04T09:30:04.490Z,1.45
2022-11-04T09:32:37.340Z,2.40
2022-11-04T09:35:10.822Z,2.33
2022-11-04T09:37:43.623Z,2.78
2022-11-04T09:40:19.901Z,2.63
2022-11-04T09:43:00.398Z,1.98
2022-11-04T09:45:33.967Z,2.38
2022-11-04T09:48:11.895Z,1.50
2022-11-04T09:50:50.944Z,0.98
2022-11-04T09:53:47.099Z,0.47
2022-11-04T09:56:23.673Z,0.52
2022-11-04T09:58:56.665Z,0.95
2022-11-04T10:02:03.136Z,1.25
2022-11-04T10:04:58.299Z,1.85
2022-11-04T10:07:49.718Z,1.08
2022-11-04T10:10:24.290Z,0.80
2022-11-04T10:13:17.137Z,0.50
2022-11-04T10:15:57.288Z,0.73
2022-11-04T10:18:35.240Z,1.80
2022-11-04T10:21:24.451Z,1.27
2022-11-04T10:24:18.178Z,1.65
2022-11-04T10:27:03.509Z,1.50
2022-11-04T10:29:41.596Z,0.45
2022-11-04T10:32:35.487Z,1.92
2022-11-04T10:35:21.694Z,0.88
2022-11-04T10:37:56.461Z,0.70
2022-11-04T10:40:39.212Z,0.85
2022-11-04T10:43:21.497Z,1.77
2022-11-04T10:46:19.459Z,1.65
2022-11-04T10:49:06.173Z,0.95
2022-11-04T10:51:39.308Z,1.00
2022-11-04T10:54:12.479Z,0.60
2022-11-04T10:56:53.320Z,1.55
2022-11-04T10:59:43.691Z,0.88
2022-11-04T11:02:16.928Z,0.13
2022-11-04T11:04:50.033Z,0.32
2022-11-04T11:07:37.861Z,1.55
2022-11-04T11:10:20.892Z,0.50
2022-11-04T11:13:03.097Z,0.68
2022-11-04T11:15:38.380Z,0.65
2022-11-04T11:18:18.255Z,0.77
2022-11-04T11:21:04.278Z,0.65
2022-11-04T11:23:39.524Z,0.90
2022-11-04T11:28:59.222Z,1.40
2022-11-04T11:31:40.727Z,0.40
2022-11-04T11:34:23.233Z,0.77
2022-11-04T11:36:57.172Z,1.23
2022-11-04T11:39:33.619Z,0.40
2022-11-04T11:42:12.160Z,0.38
2022-11-04T11:44:51.341Z,0.77
2022-11-04T11:47:39.450Z,1.10
2022-11-04T11:50:31.697Z,0.60
2022-11-04T11:53:17.841Z,0.80
2022-11-04T11:56:15.320Z,0.80
2022-11-04T12:02:13.461Z,2.10
2022-11-04T12:11:08.430Z,1.45
2022-11-04T12:13:49.551Z,1.23
2022-11-04T12:16:45.090Z,0.75
2022-11-04T12:19:41.118Z,1.40
2022-11-04T12:22:28.995Z,0.70
2022-11-04T12:25:26.629Z,1.17
2022-11-04T12:28:09.606Z,2.63
2022-11-04T12:31:00.308Z,0.40
2022-11-04T12:33:47.521Z,1.40
2022-11-04T12:36:41.046Z,0.50
2022-11-04T12:39:43.544Z,2.00
2022-11-04T12:42:33.457Z,1.35
2022-11-04T12:45:21.641Z,1.17
2022-11-04T12:48:02.548Z,2.42
2022-11-04T12:50:41.266Z,1.20
2022-11-04T12:53:29.582Z,1.00
2022-11-04T12:56:13.570Z,1.52
2022-11-04T12:59:06.938Z,1.55
2022-11-04T13:01:47.192Z,1.55
2022-11-04T13:04:27.350Z,1.27
2022-11-04T13:07:14.867Z,0.22
2022-11-04T13:09:55.094Z,1.05
2022-11-04T13:12:37.367Z,0.93
2022-11-04T13:15:23.143Z,1.58
2022-11-04T13:18:01.630Z,1.73
2022-11-04T13:20:40.635Z,1.40
2022-11-04T13:23:21.124Z,3.05
2022-11-04T13:25:55.951Z,1.85
2022-11-04T13:28:29.530Z,0.93
2022-11-04T13:31:16.922Z,1.25
2022-11-04T13:34:10.777Z,0.75
2022-11-04T13:36:47.663Z,1.65
2022-11-04T13:39:37.705Z,1.15
2022-11-04T13:42:18.432Z,1.85
2022-11-04T13:44:57.321Z,1.23
2022-11-04T13:47:37.694Z,1.67
2022-11-04T13:50:28.447Z,1.48
2022-11-04T13:53:01.419Z,4.13
2022-11-04T13:55:36.213Z,1.20
2022-11-04T13:58:25.662Z,1.98
2022-11-04T14:01:20.068Z,4.35
2022-11-04T14:04:02.823Z,1.88
2022-11-04T14:06:53.090Z,1.50
2022-11-04T14:09:36.994Z,1.73
2022-11-04T14:12:14.711Z,2.33
2022-11-04T14:14:52.478Z,0.85
2022-11-04T14:17:42.025Z,2.75
2022-11-04T14:20:31.930Z,1.50
2022-11-04T14:23:06.848Z,3.67
2022-11-04T14:25:42.133Z,1.73
2022-11-04T14:31:40.196Z,1.45
2022-11-04T14:34:25.835Z,1.40
2022-11-04T14:37:02.553Z,0.98
2022-11-04T14:39:40.641Z,1.05
2022-11-04T14:42:15.080Z,1.25
2022-11-04T14:44:50.657Z,2.07
2022-11-04T14:47:31.166Z,2.28
2022-11-04T14:50:08.871Z,3.83
2022-11-04T14:52:43.234Z,1.30
2022-11-04T14:55:20.278Z,3.30
2022-11-04T14:57:55.696Z,6.50
2022-11-04T15:06:40.688Z,4.65
2022-11-04T15:09:35.604Z,1.58
2022-11-04T15:12:28.776Z,1.98
2022-11-04T15:15:01.755Z,1.77
2022-11-04T15:17:34.781Z,4.32
2022-11-04T15:20:20.350Z,4.30
2022-11-04T15:22:56.017Z,6.38
2022-11-04T15:25:31.886Z,3.58
2022-11-04T15:28:12.898Z,3.17
2022-11-04T15:30:58.651Z,4.10
2022-11-04T15:36:18.717Z,3.60
2022-11-04T15:39:09.661Z,3.20
2022-11-04T15:42:00.475Z,2.13
2022-11-04T15:44:36.664Z,2.58
2022-11-04T15:47:27.373Z,3.60
2022-11-04T15:50:21.518Z,2.38
2022-11-04T15:52:56.359Z,4.32
2022-11-04T15:55:32.375Z,2.38
2022-11-04T15:58:05.412Z,3.05
2022-11-04T16:00:38.354Z,3.20
2022-11-04T16:03:20.012Z,5.93
2022-11-04T16:06:08.865Z,3.00
2022-11-04T16:08:41.769Z,6.22
2022-11-04T16:11:16.602Z,2.90
2022-11-04T16:13:49.310Z,1.95
2022-11-04T16:16:24.927Z,2.10
2022-11-04T16:18:59.056Z,2.35
2022-11-04T16:21:35.300Z,3.00
2022-11-04T16:24:25.991Z,8.57
2022-11-04T16:27:00.255Z,4.80
2022-11-04T16:29:36.969Z,25.90
2022-11-04T16:32:25.287Z,25.70
2022-11-04T16:35:01.730Z,7.32
2022-11-04T16:37:34.619Z,4.55
2022-11-04T16:40:08.554Z,3.03
2022-11-04T16:42:41.948Z,5.07
2022-11-04T16:45:36.080Z,5.68
2022-11-04T16:48:14.749Z,3.55
2022-11-04T16:50:49.199Z,5.25
2022-11-04T16:53:21.944Z,3.40
2022-11-04T16:55:56.137Z,4.75
2022-11-04T16:58:30.043Z,5.47
2022-11-04T17:01:05.672Z,4.55
2022-11-04T17:03:38.795Z,4.50
2022-11-04T17:06:15.119Z,4.18
2022-11-04T17:08:47.800Z,3.15
2022-11-04T17:11:20.566Z,4.65
2022-11-04T17:13:53.510Z,6.35
2022-11-04T17:16:26.566Z,4.15
2022-11-04T17:18:59.356Z,4.65
2022-11-04T17:21:32.379Z,7.53
2022-11-04T17:24:05.650Z,10.38
2022-11-04T17:26:38.545Z,4.22
2022-11-04T17:29:15.994Z,5.32
2022-11-04T17:31:50.353Z,3.67
2022-11-04T17:34:26.004Z,7.88
2022-11-04T17:36:58.972Z,15.75
2022-11-04T17:39:31.644Z,18.92
2022-11-04T17:42:20.212Z,6.70
2022-11-04T17:44:53.048Z,9.82
2022-11-04T17:47:26.151Z,3.75
2022-11-04T17:49:59.131Z,3.40
2022-11-04T17:52:31.893Z,10.35
2022-11-04T17:55:05.502Z,10.73
2022-11-04T17:57:38.689Z,7.57
2022-11-04T18:00:14.730Z,4.93
2022-11-04T18:02:47.629Z,7.50
2022-11-04T18:05:20.550Z,6.13
2022-11-04T18:07:55.361Z,3.40
2022-11-04T18:10:28.487Z,5.15
2022-11-04T18:13:01.394Z,3.63
2022-11-04T18:15:34.332Z,2.75
2022-11-04T18:18:07.455Z,5.47
2022-11-04T18:20:40.418Z,5.78
2022-11-04T18:23:13.655Z,3.85
2022-11-04T18:25:50.575Z,2.80
2022-11-04T18:28:23.871Z,2.95
2022-11-04T18:30:56.704Z,3.50
2022-11-04T18:33:29.608Z,4.45
2022-11-04T18:36:05.576Z,4.30
2022-11-04T18:38:38.383Z,5.82
2022-11-04T18:41:11.182Z,7.38
2022-11-04T18:43:44.386Z,5.20
2022-11-04T18:46:18.209Z,6.18
2022-11-04T18:48:52.230Z,5.25
2022-11-04T18:51:24.988Z,4.47
2022-11-04T18:53:57.710Z,8.52
2022-11-04T18:56:30.386Z,6.53
2022-11-04T18:59:03.349Z,6.60
2022-11-04T19:01:36.589Z,6.22
2022-11-04T19:04:10.000Z,5.95
2022-11-04T19:06:45.429Z,6.43
2022-11-04T19:12:27.583Z,5.72
2022-11-04T19:15:00.362Z,6.63
2022-11-04T19:17:35.452Z,5.70
2022-11-04T19:20:12.550Z,5.75
2022-11-04T19:22:45.688Z,8.43
2022-11-04T19:25:19.063Z,5.22
2022-11-04T19:28:11.693Z,7.03
2022-11-04T19:30:44.748Z,6.60
2022-11-04T19:33:17.423Z,8.23
2022-11-04T19:35:54.234Z,4.70
2022-11-04T19:38:27.601Z,3.30
2022-11-04T19:41:33.767Z,5.10
2022-11-04T19:44:10.760Z,5.18
2022-11-04T19:46:43.664Z,4.13
2022-11-04T19:49:16.944Z,4.28
2022-11-04T19:51:49.676Z,3.38
2022-11-04T19:54:22.384Z,4.78
2022-11-04T19:56:55.185Z,4.47
2022-11-04T19:59:27.889Z,4.97
2022-11-04T20:02:00.637Z,5.82
2022-11-04T20:04:33.469Z,4.82
2022-11-04T20:07:06.211Z,4.13
2022-11-04T20:09:39.760Z,3.75
2022-11-04T20:12:28.271Z,3.33
2022-11-04T20:15:01.068Z,3.70
2022-11-04T20:17:34.127Z,3.28
2022-11-04T20:20:07.439Z,5.53
2022-11-04T20:22:41.029Z,5.05
2022-11-04T20:25:14.302Z,3.42
2022-11-04T20:27:48.211Z,5.28
2022-11-04T20:30:20.794Z,6.00
2022-11-04T20:32:53.527Z,3.50
2022-11-04T20:35:26.515Z,4.65
2022-11-04T20:37:59.268Z,7.97
2022-11-04T20:40:31.921Z,5.15
2022-11-04T20:43:04.981Z,4.13
2022-11-04T20:45:39.228Z,4.40
2022-11-04T20:48:12.272Z,3.28
2022-11-04T20:50:45.551Z,3.30
2022-11-04T20:53:18.467Z,3.13
2022-11-04T20:55:51.074Z,5.85
2022-11-04T20:58:23.845Z,4.18
2022-11-04T21:01:02.459Z,3.42
2022-11-04T21:03:35.554Z,3.33
2022-11-04T21:06:08.217Z,3.80
2022-11-04T21:08:40.926Z,4.30
2022-11-04T21:11:13.452Z,6.03
2022-11-04T21:13:46.226Z,3.40
2022-11-04T21:16:19.439Z,4.50
2022-11-04T21:18:52.365Z,5.07
2022-11-04T21:21:28.179Z,4.97
2022-11-04T21:24:04.028Z,3.97
2022-11-04T21:26:36.535Z,4.32
2022-11-04T21:29:12.983Z,3.75
2022-11-04T21:31:47.511Z,11.23
2022-11-04T21:34:20.575Z,3.85
2022-11-04T21:36:53.298Z,4.97
2022-11-04T21:39:26.695Z,4.20
2022-11-04T21:41:59.562Z,3.80
2022-11-04T21:44:32.328Z,4.30
2022-11-04T21:47:05.055Z,4.78
2022-11-04T21:49:37.739Z,4.90
2022-11-04T21:52:10.361Z,4.25
2022-11-04T21:54:42.985Z,4.05
2022-11-04T21:57:16.117Z,5.72
2022-11-04T21:59:49.060Z,4.15
2022-11-04T22:02:21.774Z,6.53
2022-11-04T22:04:54.344Z,4.00
2022-11-04T22:07:42.685Z,3.75
2022-11-04T22:10:15.313Z,6.80
2022-11-04T22:12:51.234Z,3.67
2022-11-04T22:15:40.250Z,4.07
2022-11-04T22:18:15.289Z,8.32
2022-11-04T22:20:47.899Z,4.53
2022-11-04T22:23:20.912Z,3.60
2022-11-04T22:25:53.555Z,4.22
2022-11-04T22:28:26.165Z,3.30
2022-11-04T22:31:06.066Z,6.65
2022-11-04T22:33:38.843Z,3.00
2022-11-04T22:36:13.775Z,4.68
2022-11-04T22:38:46.586Z,3.83
2022-11-04T22:41:22.623Z,5.88
2022-11-04T22:43:56.843Z,4.68
2022-11-04T22:46:32.387Z,6.50
2022-11-04T22:49:05.241Z,3.30
2022-11-04T22:51:38.001Z,4.90
2022-11-04T22:54:10.828Z,5.72
2022-11-04T22:56:43.461Z,3.35
2022-11-04T22:59:15.961Z,4.20
2022-11-04T23:01:48.841Z,5.57
2022-11-04T23:04:21.631Z,3.92
2022-11-04T23:06:54.277Z,4.18
2022-11-04T23:09:26.856Z,3.97
2022-11-04T23:12:15.045Z,4.65
2022-11-04T23:15:03.806Z,6.20
2022-11-04T23:17:51.669Z,5.10
2022-11-04T23:20:28.097Z,4.57
2022-11-04T23:23:16.596Z,4.13
2022-11-04T23:25:49.222Z,5.70
2022-11-04T23:28:37.876Z,4.57
2022-11-04T23:31:10.614Z,3.92
2022-11-04T23:33:58.716Z,4.88
2022-11-04T23:36:46.472Z,3.92
2022-11-04T23:39:19.212Z,5.88
2022-11-04T23:42:06.906Z,5.00
2022-11-04T23:44:55.458Z,3.95
2022-11-04T23:47:44.024Z,4.47
2022-11-04T23:50:32.504Z,4.43
2022-11-04T23:53:22.083Z,5.13
2022-11-04T23:56:10.032Z,3.53
2022-11-04T23:58:58.046Z,4.20
